sensor_id;sensor_type;location;lat;lon;timestamp;P1;durP1;ratioP1;P2;durP2;ratioP2
73697;SDS011;62004;42.566;23.164;2022-10-22T00:01:04;8.60;;;6.20;;
73697;SDS011;62004;42.566;23.164;2022-10-22T00:03:29;10.10;;;5.57;;
73697;SDS011;62004;42.566;23.164;2022-10-22T00:05:55;9.45;;;6.60;;
73697;SDS011;62004;42.566;23.164;2022-10-22T00:08:20;8.27;;;6.40;;
73697;SDS011;62004;42.566;23.164;2022-10-22T00:10:45;10.82;;;6.47;;
73697;SDS011;62004;42.566;23.164;2022-10-22T00:13:11;9.93;;;7.28;;
73697;SDS011;62004;42.566;23.164;2022-10-22T00:15:36;8.90;;;5.88;;
73697;SDS011;62004;42.566;23.164;2022-10-22T00:18:01;12.15;;;6.70;;
73697;SDS011;62004;42.566;23.164;2022-10-22T00:20:27;7.17;;;5.50;;
73697;SDS011;62004;42.566;23.164;2022-10-22T00:22:53;9.75;;;6.65;;
73697;SDS011;62004;42.566;23.164;2022-10-22T00:25:18;7.95;;;6.25;;
73697;SDS011;62004;42.566;23.164;2022-10-22T00:27:44;9.10;;;6.73;;
73697;SDS011;62004;42.566;23.164;2022-10-22T00:30:09;9.65;;;6.40;;
73697;SDS011;62004;42.566;23.164;2022-10-22T00:32:35;9.55;;;6.47;;
73697;SDS011;62004;42.566;23.164;2022-10-22T00:35:01;10.52;;;6.93;;
73697;SDS011;62004;42.566;23.164;2022-10-22T00:37:26;8.68;;;6.80;;
73697;SDS011;62004;42.566;23.164;2022-10-22T00:39:52;11.57;;;7.00;;
73697;SDS011;62004;42.566;23.164;2022-10-22T00:42:19;7.75;;;5.28;;
73697;SDS011;62004;42.566;23.164;2022-10-22T00:47:30;7.60;;;6.32;;
73697;SDS011;62004;42.566;23.164;2022-10-22T00:49:56;9.98;;;6.78;;
73697;SDS011;62004;42.566;23.164;2022-10-22T00:52:22;10.45;;;7.03;;
73697;SDS011;62004;42.566;23.164;2022-10-22T00:54:48;8.57;;;7.00;;
73697;SDS011;62004;42.566;23.164;2022-10-22T00:57:14;10.32;;;5.90;;
73697;SDS011;62004;42.566;23.164;2022-10-22T00:59:40;13.75;;;7.32;;
73697;SDS011;62004;42.566;23.164;2022-10-22T01:02:05;8.93;;;7.20;;
73697;SDS011;62004;42.566;23.164;2022-10-22T01:04:30;8.80;;;7.13;;
73697;SDS011;62004;42.566;23.164;2022-10-22T01:06:56;7.90;;;5.57;;
73697;SDS011;62004;42.566;23.164;2022-10-22T01:17:25;10.65;;;6.20;;
73697;SDS011;62004;42.566;23.164;2022-10-22T01:25:04;8.48;;;6.40;;
73697;SDS011;62004;42.566;23.164;2022-10-22T01:27:45;8.38;;;6.40;;
73697;SDS011;62004;42.566;23.164;2022-10-22T01:30:13;8.73;;;5.68;;
73697;SDS011;62004;42.566;23.164;2022-10-22T01:32:40;9.52;;;6.80;;
73697;SDS011;62004;42.566;23.164;2022-10-22T01:35:08;8.63;;;6.88;;
73697;SDS011;62004;42.566;23.164;2022-10-22T01:37:36;8.55;;;6.57;;
73697;SDS011;62004;42.566;23.164;2022-10-22T01:40:03;9.40;;;6.55;;
73697;SDS011;62004;42.566;23.164;2022-10-22T01:42:29;8.23;;;6.47;;
73697;SDS011;62004;42.566;23.164;2022-10-22T01:44:54;8.65;;;6.35;;
73697;SDS011;62004;42.566;23.164;2022-10-22T01:47:22;10.67;;;7.20;;
73697;SDS011;62004;42.566;23.164;2022-10-22T01:55:14;8.30;;;6.17;;
73697;SDS011;62004;42.566;23.164;2022-10-22T01:57:47;8.68;;;6.40;;
73697;SDS011;62004;42.566;23.164;2022-10-22T02:00:15;9.90;;;6.00;;
73697;SDS011;62004;42.566;23.164;2022-10-22T02:02:58;9.50;;;6.68;;
73697;SDS011;62004;42.566;23.164;2022-10-22T02:08:08;7.22;;;5.32;;
73697;SDS011;62004;42.566;23.164;2022-10-22T02:10:34;10.82;;;7.22;;
73697;SDS011;62004;42.566;23.164;2022-10-22T02:13:00;9.07;;;7.20;;
73697;SDS011;62004;42.566;23.164;2022-10-22T02:15:27;7.57;;;5.78;;
73697;SDS011;62004;42.566;23.164;2022-10-22T02:17:54;8.32;;;6.80;;
73697;SDS011;62004;42.566;23.164;2022-10-22T02:20:26;12.07;;;6.45;;
73697;SDS011;62004;42.566;23.164;2022-10-22T02:22:52;10.02;;;6.10;;
73697;SDS011;62004;42.566;23.164;2022-10-22T02:25:17;7.45;;;6.38;;
73697;SDS011;62004;42.566;23.164;2022-10-22T02:27:46;9.20;;;6.07;;
73697;SDS011;62004;42.566;23.164;2022-10-22T02:30:14;10.48;;;6.07;;
73697;SDS011;62004;42.566;23.164;2022-10-22T02:32:47;10.45;;;6.70;;
73697;SDS011;62004;42.566;23.164;2022-10-22T02:35:14;9.82;;;7.15;;
73697;SDS011;62004;42.566;23.164;2022-10-22T02:37:41;10.48;;;7.63;;
73697;SDS011;62004;42.566;23.164;2022-10-22T02:40:07;10.75;;;6.35;;
73697;SDS011;62004;42.566;23.164;2022-10-22T02:42:32;10.38;;;7.00;;
73697;SDS011;62004;42.566;23.164;2022-10-22T02:44:58;11.88;;;7.55;;
73697;SDS011;62004;42.566;23.164;2022-10-22T02:47:23;11.43;;;7.63;;
73697;SDS011;62004;42.566;23.164;2022-10-22T02:49:49;10.33;;;7.60;;
73697;SDS011;62004;42.566;23.164;2022-10-22T02:52:14;8.27;;;6.47;;
73697;SDS011;62004;42.566;23.164;2022-10-22T02:54:39;9.13;;;7.27;;
73697;SDS011;62004;42.566;23.164;2022-10-22T02:57:05;9.35;;;6.97;;
73697;SDS011;62004;42.566;23.164;2022-10-22T02:59:30;8.07;;;6.00;;
73697;SDS011;62004;42.566;23.164;2022-10-22T03:01:55;11.10;;;6.18;;
73697;SDS011;62004;42.566;23.164;2022-10-22T03:04:20;10.02;;;6.63;;
73697;SDS011;62004;42.566;23.164;2022-10-22T03:06:46;9.23;;;7.10;;
73697;SDS011;62004;42.566;23.164;2022-10-22T03:09:12;9.60;;;7.38;;
73697;SDS011;62004;42.566;23.164;2022-10-22T03:11:38;10.40;;;6.53;;
73697;SDS011;62004;42.566;23.164;2022-10-22T03:14:03;10.07;;;6.50;;
73697;SDS011;62004;42.566;23.164;2022-10-22T03:16:28;12.00;;;6.87;;
73697;SDS011;62004;42.566;23.164;2022-10-22T03:18:53;10.53;;;6.53;;
73697;SDS011;62004;42.566;23.164;2022-10-22T03:21:28;10.73;;;7.30;;
73697;SDS011;62004;42.566;23.164;2022-10-22T03:23:54;8.65;;;6.90;;
73697;SDS011;62004;42.566;23.164;2022-10-22T03:26:20;12.82;;;7.43;;
73697;SDS011;62004;42.566;23.164;2022-10-22T03:28:47;8.43;;;6.22;;
73697;SDS011;62004;42.566;23.164;2022-10-22T03:31:12;8.55;;;6.40;;
73697;SDS011;62004;42.566;23.164;2022-10-22T03:33:38;11.77;;;7.53;;
73697;SDS011;62004;42.566;23.164;2022-10-22T03:36:03;10.80;;;6.50;;
73697;SDS011;62004;42.566;23.164;2022-10-22T03:38:30;7.50;;;6.20;;
73697;SDS011;62004;42.566;23.164;2022-10-22T03:40:55;12.73;;;6.93;;
73697;SDS011;62004;42.566;23.164;2022-10-22T03:43:20;10.20;;;6.60;;
73697;SDS011;62004;42.566;23.164;2022-10-22T03:45:46;9.68;;;6.78;;
73697;SDS011;62004;42.566;23.164;2022-10-22T03:48:11;7.87;;;6.37;;
73697;SDS011;62004;42.566;23.164;2022-10-22T03:50:36;8.07;;;6.20;;
73697;SDS011;62004;42.566;23.164;2022-10-22T03:53:02;9.10;;;5.10;;
73697;SDS011;62004;42.566;23.164;2022-10-22T03:55:27;9.43;;;6.55;;
73697;SDS011;62004;42.566;23.164;2022-10-22T03:57:53;8.10;;;6.07;;
73697;SDS011;62004;42.566;23.164;2022-10-22T04:00:18;9.40;;;6.70;;
73697;SDS011;62004;42.566;23.164;2022-10-22T04:02:43;8.85;;;6.57;;
73697;SDS011;62004;42.566;23.164;2022-10-22T04:05:08;11.90;;;7.50;;
73697;SDS011;62004;42.566;23.164;2022-10-22T04:07:34;9.83;;;7.00;;
73697;SDS011;62004;42.566;23.164;2022-10-22T04:09:59;7.80;;;5.47;;
73697;SDS011;62004;42.566;23.164;2022-10-22T04:12:24;10.97;;;6.73;;
73697;SDS011;62004;42.566;23.164;2022-10-22T04:14:50;10.98;;;7.30;;
73697;SDS011;62004;42.566;23.164;2022-10-22T04:17:15;10.50;;;7.57;;
73697;SDS011;62004;42.566;23.164;2022-10-22T04:19:41;9.15;;;6.18;;
73697;SDS011;62004;42.566;23.164;2022-10-22T04:22:06;9.57;;;6.87;;
73697;SDS011;62004;42.566;23.164;2022-10-22T04:24:31;9.50;;;6.70;;
73697;SDS011;62004;42.566;23.164;2022-10-22T04:26:56;9.07;;;6.87;;
73697;SDS011;62004;42.566;23.164;2022-10-22T04:29:22;6.75;;;5.15;;
73697;SDS011;62004;42.566;23.164;2022-10-22T04:31:47;10.48;;;7.13;;
73697;SDS011;62004;42.566;23.164;2022-10-22T04:34:12;13.47;;;7.80;;
73697;SDS011;62004;42.566;23.164;2022-10-22T04:36:38;15.33;;;7.47;;
73697;SDS011;62004;42.566;23.164;2022-10-22T04:39:03;7.97;;;5.85;;
73697;SDS011;62004;42.566;23.164;2022-10-22T04:41:30;11.43;;;7.60;;
73697;SDS011;62004;42.566;23.164;2022-10-22T04:43:55;8.85;;;6.43;;
73697;SDS011;62004;42.566;23.164;2022-10-22T04:46:21;13.40;;;7.20;;
73697;SDS011;62004;42.566;23.164;2022-10-22T04:48:46;9.80;;;7.07;;
73697;SDS011;62004;42.566;23.164;2022-10-22T04:51:15;9.15;;;5.93;;
73697;SDS011;62004;42.566;23.164;2022-10-22T04:53:41;11.15;;;7.30;;
73697;SDS011;62004;42.566;23.164;2022-10-22T04:58:32;11.00;;;6.47;;
73697;SDS011;62004;42.566;23.164;2022-10-22T05:00:58;9.50;;;6.13;;
73697;SDS011;62004;42.566;23.164;2022-10-22T05:03:23;10.87;;;6.83;;
73697;SDS011;62004;42.566;23.164;2022-10-22T05:05:49;9.93;;;6.63;;
73697;SDS011;62004;42.566;23.164;2022-10-22T05:08:15;7.23;;;6.47;;
73697;SDS011;62004;42.566;23.164;2022-10-22T05:10:40;7.33;;;6.10;;
73697;SDS011;62004;42.566;23.164;2022-10-22T05:13:05;9.43;;;6.03;;
73697;SDS011;62004;42.566;23.164;2022-10-22T05:15:31;9.33;;;6.23;;
73697;SDS011;62004;42.566;23.164;2022-10-22T05:17:57;7.40;;;6.07;;
73697;SDS011;62004;42.566;23.164;2022-10-22T05:20:22;10.23;;;5.67;;
73697;SDS011;62004;42.566;23.164;2022-10-22T05:22:47;6.07;;;5.20;;
73697;SDS011;62004;42.566;23.164;2022-10-22T05:25:13;7.20;;;5.17;;
73697;SDS011;62004;42.566;23.164;2022-10-22T05:27:38;5.73;;;4.50;;
73697;SDS011;62004;42.566;23.164;2022-10-22T05:30:03;8.40;;;5.47;;
73697;SDS011;62004;42.566;23.164;2022-10-22T05:32:29;6.45;;;5.32;;
73697;SDS011;62004;42.566;23.164;2022-10-22T05:34:54;9.10;;;4.97;;
73697;SDS011;62004;42.566;23.164;2022-10-22T05:37:19;5.70;;;4.50;;
73697;SDS011;62004;42.566;23.164;2022-10-22T05:39:45;6.87;;;5.07;;
73697;SDS011;62004;42.566;23.164;2022-10-22T05:42:10;5.78;;;4.95;;
73697;SDS011;62004;42.566;23.164;2022-10-22T05:44:35;6.03;;;5.17;;
73697;SDS011;62004;42.566;23.164;2022-10-22T05:47:00;7.07;;;4.75;;
73697;SDS011;62004;42.566;23.164;2022-10-22T05:49:26;7.67;;;5.30;;
73697;SDS011;62004;42.566;23.164;2022-10-22T05:51:51;7.23;;;5.10;;
73697;SDS011;62004;42.566;23.164;2022-10-22T05:54:17;7.27;;;5.93;;
73697;SDS011;62004;42.566;23.164;2022-10-22T05:56:43;7.18;;;5.18;;
73697;SDS011;62004;42.566;23.164;2022-10-22T05:59:09;6.32;;;5.03;;
73697;SDS011;62004;42.566;23.164;2022-10-22T06:01:34;6.88;;;5.30;;
73697;SDS011;62004;42.566;23.164;2022-10-22T06:04:00;6.05;;;5.00;;
73697;SDS011;62004;42.566;23.164;2022-10-22T06:06:30;5.22;;;4.72;;
73697;SDS011;62004;42.566;23.164;2022-10-22T06:09:10;6.72;;;5.10;;
73697;SDS011;62004;42.566;23.164;2022-10-22T06:11:37;6.18;;;4.72;;
73697;SDS011;62004;42.566;23.164;2022-10-22T06:14:02;6.27;;;5.13;;
73697;SDS011;62004;42.566;23.164;2022-10-22T06:16:28;8.02;;;5.07;;
73697;SDS011;62004;42.566;23.164;2022-10-22T06:18:54;6.60;;;5.82;;
73697;SDS011;62004;42.566;23.164;2022-10-22T06:21:19;8.50;;;5.40;;
73697;SDS011;62004;42.566;23.164;2022-10-22T06:23:44;8.83;;;6.07;;
73697;SDS011;62004;42.566;23.164;2022-10-22T06:26:10;7.90;;;6.53;;
73697;SDS011;62004;42.566;23.164;2022-10-22T06:28:35;6.80;;;5.70;;
73697;SDS011;62004;42.566;23.164;2022-10-22T06:31:01;7.50;;;5.45;;
73697;SDS011;62004;42.566;23.164;2022-10-22T06:33:27;6.55;;;5.72;;
73697;SDS011;62004;42.566;23.164;2022-10-22T06:35:52;8.65;;;6.88;;
73697;SDS011;62004;42.566;23.164;2022-10-22T06:38:18;8.35;;;6.13;;
73697;SDS011;62004;42.566;23.164;2022-10-22T06:40:44;7.40;;;5.38;;
73697;SDS011;62004;42.566;23.164;2022-10-22T06:43:10;8.00;;;5.63;;
73697;SDS011;62004;42.566;23.164;2022-10-22T06:45:36;7.80;;;5.45;;
73697;SDS011;62004;42.566;23.164;2022-10-22T06:48:01;6.75;;;5.50;;
73697;SDS011;62004;42.566;23.164;2022-10-22T06:50:26;6.80;;;5.93;;
73697;SDS011;62004;42.566;23.164;2022-10-22T06:52:52;8.10;;;7.40;;
73697;SDS011;62004;42.566;23.164;2022-10-22T06:55:17;9.73;;;8.82;;
73697;SDS011;62004;42.566;23.164;2022-10-22T06:57:42;8.05;;;7.28;;
73697;SDS011;62004;42.566;23.164;2022-10-22T07:00:08;5.97;;;5.37;;
73697;SDS011;62004;42.566;23.164;2022-10-22T07:02:33;6.32;;;5.60;;
73697;SDS011;62004;42.566;23.164;2022-10-22T07:04:59;9.60;;;7.00;;
73697;SDS011;62004;42.566;23.164;2022-10-22T07:07:24;8.70;;;8.00;;
73697;SDS011;62004;42.566;23.164;2022-10-22T07:09:49;28.42;;;26.77;;
73697;SDS011;62004;42.566;23.164;2022-10-22T07:12:15;14.57;;;13.63;;
73697;SDS011;62004;42.566;23.164;2022-10-22T07:14:40;13.95;;;12.88;;
73697;SDS011;62004;42.566;23.164;2022-10-22T07:17:05;12.95;;;11.95;;
73697;SDS011;62004;42.566;23.164;2022-10-22T07:19:31;11.23;;;10.53;;
73697;SDS011;62004;42.566;23.164;2022-10-22T07:21:56;10.32;;;9.60;;
73697;SDS011;62004;42.566;23.164;2022-10-22T07:24:22;11.80;;;10.87;;
73697;SDS011;62004;42.566;23.164;2022-10-22T07:26:47;12.80;;;11.73;;
73697;SDS011;62004;42.566;23.164;2022-10-22T07:29:12;9.77;;;9.07;;
73697;SDS011;62004;42.566;23.164;2022-10-22T07:31:39;12.43;;;11.52;;
73697;SDS011;62004;42.566;23.164;2022-10-22T07:34:04;10.77;;;9.95;;
73697;SDS011;62004;42.566;23.164;2022-10-22T07:36:30;8.93;;;8.23;;
73697;SDS011;62004;42.566;23.164;2022-10-22T07:38:56;9.82;;;9.02;;
73697;SDS011;62004;42.566;23.164;2022-10-22T07:41:21;9.32;;;8.55;;
73697;SDS011;62004;42.566;23.164;2022-10-22T07:43:47;5.75;;;5.03;;
73697;SDS011;62004;42.566;23.164;2022-10-22T07:46:12;7.37;;;5.20;;
73697;SDS011;62004;42.566;23.164;2022-10-22T07:48:38;7.03;;;5.10;;
73697;SDS011;62004;42.566;23.164;2022-10-22T07:51:03;5.07;;;4.68;;
73697;SDS011;62004;42.566;23.164;2022-10-22T07:53:29;10.23;;;5.15;;
73697;SDS011;62004;42.566;23.164;2022-10-22T07:55:54;7.67;;;5.27;;
73697;SDS011;62004;42.566;23.164;2022-10-22T07:58:21;5.25;;;4.75;;
73697;SDS011;62004;42.566;23.164;2022-10-22T08:00:46;6.45;;;5.00;;
73697;SDS011;62004;42.566;23.164;2022-10-22T08:03:12;8.77;;;5.03;;
73697;SDS011;62004;42.566;23.164;2022-10-22T08:05:37;5.15;;;4.70;;
73697;SDS011;62004;42.566;23.164;2022-10-22T08:08:05;5.32;;;4.80;;
73697;SDS011;62004;42.566;23.164;2022-10-22T08:10:30;5.93;;;4.75;;
73697;SDS011;62004;42.566;23.164;2022-10-22T08:12:56;7.38;;;4.90;;
73697;SDS011;62004;42.566;23.164;2022-10-22T08:15:21;6.15;;;4.30;;
73697;SDS011;62004;42.566;23.164;2022-10-22T08:17:48;5.78;;;4.40;;
73697;SDS011;62004;42.566;23.164;2022-10-22T08:20:14;5.90;;;5.25;;
73697;SDS011;62004;42.566;23.164;2022-10-22T08:22:39;8.15;;;4.70;;
73697;SDS011;62004;42.566;23.164;2022-10-22T08:25:04;7.57;;;5.23;;
73697;SDS011;62004;42.566;23.164;2022-10-22T08:27:30;6.15;;;4.88;;
73697;SDS011;62004;42.566;23.164;2022-10-22T08:29:55;6.90;;;4.90;;
73697;SDS011;62004;42.566;23.164;2022-10-22T08:32:20;8.80;;;5.33;;
73697;SDS011;62004;42.566;23.164;2022-10-22T08:34:46;6.40;;;4.93;;
73697;SDS011;62004;42.566;23.164;2022-10-22T08:37:11;7.13;;;5.53;;
73697;SDS011;62004;42.566;23.164;2022-10-22T08:39:38;6.50;;;5.30;;
73697;SDS011;62004;42.566;23.164;2022-10-22T08:42:05;5.65;;;5.05;;
73697;SDS011;62004;42.566;23.164;2022-10-22T08:49:39;6.60;;;5.72;;
73697;SDS011;62004;42.566;23.164;2022-10-22T08:52:07;7.57;;;5.43;;
73697;SDS011;62004;42.566;23.164;2022-10-22T08:57:02;5.00;;;4.60;;
73697;SDS011;62004;42.566;23.164;2022-10-22T08:59:32;5.72;;;4.78;;
73697;SDS011;62004;42.566;23.164;2022-10-22T09:02:00;5.32;;;4.57;;
73697;SDS011;62004;42.566;23.164;2022-10-22T09:04:30;6.70;;;5.22;;
73697;SDS011;62004;42.566;23.164;2022-10-22T09:06:57;7.13;;;4.65;;
73697;SDS011;62004;42.566;23.164;2022-10-22T09:09:23;5.82;;;4.47;;
73697;SDS011;62004;42.566;23.164;2022-10-22T09:11:51;7.30;;;4.20;;
73697;SDS011;62004;42.566;23.164;2022-10-22T09:14:20;5.07;;;4.57;;
73697;SDS011;62004;42.566;23.164;2022-10-22T09:17:11;6.65;;;4.80;;
73697;SDS011;62004;42.566;23.164;2022-10-22T09:19:36;4.72;;;4.30;;
73697;SDS011;62004;42.566;23.164;2022-10-22T09:24:44;5.30;;;4.55;;
73697;SDS011;62004;42.566;23.164;2022-10-22T09:27:13;5.22;;;4.22;;
73697;SDS011;62004;42.566;23.164;2022-10-22T09:29:39;6.82;;;4.50;;
73697;SDS011;62004;42.566;23.164;2022-10-22T09:32:05;4.70;;;3.85;;
73697;SDS011;62004;42.566;23.164;2022-10-22T09:34:30;4.30;;;3.90;;
73697;SDS011;62004;42.566;23.164;2022-10-22T09:36:57;6.55;;;4.88;;
73697;SDS011;62004;42.566;23.164;2022-10-22T09:39:25;6.00;;;4.03;;
73697;SDS011;62004;42.566;23.164;2022-10-22T09:41:50;4.72;;;4.22;;
73697;SDS011;62004;42.566;23.164;2022-10-22T09:44:16;7.60;;;4.50;;
73697;SDS011;62004;42.566;23.164;2022-10-22T09:46:41;5.55;;;4.13;;
73697;SDS011;62004;42.566;23.164;2022-10-22T09:49:10;6.82;;;4.43;;
73697;SDS011;62004;42.566;23.164;2022-10-22T09:51:39;6.97;;;4.43;;
73697;SDS011;62004;42.566;23.164;2022-10-22T09:56:39;5.18;;;4.10;;
73697;SDS011;62004;42.566;23.164;2022-10-22T09:59:12;5.93;;;4.20;;
73697;SDS011;62004;42.566;23.164;2022-10-22T10:01:38;6.38;;;4.55;;
73697;SDS011;62004;42.566;23.164;2022-10-22T10:04:09;4.97;;;3.50;;
73697;SDS011;62004;42.566;23.164;2022-10-22T10:06:35;9.38;;;4.50;;
73697;SDS011;62004;42.566;23.164;2022-10-22T10:09:04;6.13;;;4.25;;
73697;SDS011;62004;42.566;23.164;2022-10-22T10:11:37;6.75;;;4.32;;
73697;SDS011;62004;42.566;23.164;2022-10-22T10:22:29;4.78;;;3.85;;
73697;SDS011;62004;42.566;23.164;2022-10-22T10:27:43;6.28;;;3.90;;
73697;SDS011;62004;42.566;23.164;2022-10-22T10:30:20;6.05;;;4.22;;
73697;SDS011;62004;42.566;23.164;2022-10-22T10:43:09;6.00;;;3.80;;
73697;SDS011;62004;42.566;23.164;2022-10-22T10:50:44;3.90;;;3.50;;
73697;SDS011;62004;42.566;23.164;2022-10-22T10:58:51;4.88;;;3.83;;
73697;SDS011;62004;42.566;23.164;2022-10-22T11:06:23;4.65;;;3.50;;
73697;SDS011;62004;42.566;23.164;2022-10-22T11:11:43;7.30;;;3.60;;
73697;SDS011;62004;42.566;23.164;2022-10-22T11:19:47;6.18;;;3.35;;
73697;SDS011;62004;42.566;23.164;2022-10-22T11:27:09;3.73;;;3.27;;
73697;SDS011;62004;42.566;23.164;2022-10-22T11:29:42;4.35;;;3.10;;
73697;SDS011;62004;42.566;23.164;2022-10-22T11:32:16;4.25;;;3.85;;
73697;SDS011;62004;42.566;23.164;2022-10-22T11:37:08;4.27;;;3.07;;
73697;SDS011;62004;42.566;23.164;2022-10-22T11:39:42;4.53;;;3.00;;
73697;SDS011;62004;42.566;23.164;2022-10-22T11:42:11;4.15;;;3.13;;
73697;SDS011;62004;42.566;23.164;2022-10-22T11:44:45;4.85;;;3.47;;
73697;SDS011;62004;42.566;23.164;2022-10-22T11:47:19;4.90;;;3.03;;
73697;SDS011;62004;42.566;23.164;2022-10-22T11:49:53;4.53;;;3.17;;
73697;SDS011;62004;42.566;23.164;2022-10-22T11:54:54;6.20;;;3.03;;
73697;SDS011;62004;42.566;23.164;2022-10-22T11:57:21;6.05;;;2.97;;
73697;SDS011;62004;42.566;23.164;2022-10-22T11:59:50;6.90;;;3.05;;
73697;SDS011;62004;42.566;23.164;2022-10-22T12:02:21;6.53;;;3.33;;
73697;SDS011;62004;42.566;23.164;2022-10-22T12:04:46;7.53;;;3.13;;
73697;SDS011;62004;42.566;23.164;2022-10-22T12:10:16;4.72;;;3.38;;
73697;SDS011;62004;42.566;23.164;2022-10-22T12:12:42;4.70;;;2.83;;
73697;SDS011;62004;42.566;23.164;2022-10-22T12:15:25;4.90;;;3.60;;
73697;SDS011;62004;42.566;23.164;2022-10-22T12:17:55;9.43;;;3.38;;
73697;SDS011;62004;42.566;23.164;2022-10-22T12:20:20;3.67;;;2.70;;
73697;SDS011;62004;42.566;23.164;2022-10-22T12:22:49;6.03;;;3.00;;
73697;SDS011;62004;42.566;23.164;2022-10-22T12:25:17;4.82;;;2.85;;
73697;SDS011;62004;42.566;23.164;2022-10-22T12:27:43;4.60;;;3.17;;
73697;SDS011;62004;42.566;23.164;2022-10-22T12:30:21;3.67;;;3.33;;
73697;SDS011;62004;42.566;23.164;2022-10-22T12:32:49;7.50;;;3.13;;
73697;SDS011;62004;42.566;23.164;2022-10-22T12:35:16;5.15;;;2.97;;
73697;SDS011;62004;42.566;23.164;2022-10-22T12:37:42;4.32;;;2.95;;
73697;SDS011;62004;42.566;23.164;2022-10-22T12:40:21;4.57;;;2.83;;
73697;SDS011;62004;42.566;23.164;2022-10-22T12:42:48;5.20;;;2.75;;
73697;SDS011;62004;42.566;23.164;2022-10-22T12:45:13;5.10;;;3.22;;
73697;SDS011;62004;42.566;23.164;2022-10-22T12:47:38;3.33;;;2.78;;
73697;SDS011;62004;42.566;23.164;2022-10-22T12:50:04;2.90;;;2.53;;
73697;SDS011;62004;42.566;23.164;2022-10-22T12:52:29;4.30;;;3.22;;
73697;SDS011;62004;42.566;23.164;2022-10-22T12:54:54;4.17;;;2.80;;
73697;SDS011;62004;42.566;23.164;2022-10-22T12:57:20;5.28;;;3.83;;
73697;SDS011;62004;42.566;23.164;2022-10-22T12:59:47;4.82;;;3.17;;
73697;SDS011;62004;42.566;23.164;2022-10-22T13:04:41;4.00;;;3.53;;
73697;SDS011;62004;42.566;23.164;2022-10-22T13:12:03;7.30;;;3.70;;
73697;SDS011;62004;42.566;23.164;2022-10-22T13:14:33;4.75;;;3.63;;
73697;SDS011;62004;42.566;23.164;2022-10-22T13:17:12;5.38;;;3.10;;
73697;SDS011;62004;42.566;23.164;2022-10-22T13:22:27;4.35;;;3.03;;
73697;SDS011;62004;42.566;23.164;2022-10-22T13:24:52;4.45;;;2.85;;
73697;SDS011;62004;42.566;23.164;2022-10-22T13:27:20;7.18;;;3.10;;
73697;SDS011;62004;42.566;23.164;2022-10-22T13:29:45;4.93;;;2.90;;
73697;SDS011;62004;42.566;23.164;2022-10-22T13:35:03;3.83;;;2.75;;
73697;SDS011;62004;42.566;23.164;2022-10-22T13:37:29;5.93;;;2.97;;
73697;SDS011;62004;42.566;23.164;2022-10-22T13:39:55;8.63;;;3.15;;
73697;SDS011;62004;42.566;23.164;2022-10-22T13:42:20;4.70;;;3.58;;
73697;SDS011;62004;42.566;23.164;2022-10-22T13:44:45;6.80;;;3.30;;
73697;SDS011;62004;42.566;23.164;2022-10-22T13:47:17;6.90;;;2.90;;
73697;SDS011;62004;42.566;23.164;2022-10-22T13:49:45;3.95;;;2.95;;
73697;SDS011;62004;42.566;23.164;2022-10-22T13:52:11;5.28;;;3.20;;
73697;SDS011;62004;42.566;23.164;2022-10-22T13:54:42;6.05;;;3.55;;
73697;SDS011;62004;42.566;23.164;2022-10-22T13:57:08;4.20;;;3.60;;
73697;SDS011;62004;42.566;23.164;2022-10-22T13:59:33;4.95;;;3.17;;
73697;SDS011;62004;42.566;23.164;2022-10-22T14:01:58;5.90;;;3.57;;
73697;SDS011;62004;42.566;23.164;2022-10-22T14:04:29;6.93;;;3.33;;
73697;SDS011;62004;42.566;23.164;2022-10-22T14:06:55;7.88;;;3.20;;
73697;SDS011;62004;42.566;23.164;2022-10-22T14:09:20;5.30;;;3.23;;
73697;SDS011;62004;42.566;23.164;2022-10-22T14:11:45;4.80;;;2.90;;
73697;SDS011;62004;42.566;23.164;2022-10-22T14:14:11;5.37;;;2.90;;
73697;SDS011;62004;42.566;23.164;2022-10-22T14:16:38;4.22;;;2.75;;
73697;SDS011;62004;42.566;23.164;2022-10-22T14:19:03;4.37;;;3.27;;
73697;SDS011;62004;42.566;23.164;2022-10-22T14:21:35;5.35;;;3.90;;
73697;SDS011;62004;42.566;23.164;2022-10-22T14:24:03;4.00;;;3.15;;
73697;SDS011;62004;42.566;23.164;2022-10-22T14:26:29;5.65;;;3.53;;
73697;SDS011;62004;42.566;23.164;2022-10-22T14:28:56;6.53;;;3.42;;
73697;SDS011;62004;42.566;23.164;2022-10-22T14:31:22;5.70;;;3.10;;
73697;SDS011;62004;42.566;23.164;2022-10-22T14:33:48;5.38;;;3.28;;
73697;SDS011;62004;42.566;23.164;2022-10-22T14:36:14;5.18;;;3.13;;
73697;SDS011;62004;42.566;23.164;2022-10-22T14:38:43;7.45;;;3.67;;
73697;SDS011;62004;42.566;23.164;2022-10-22T14:41:21;3.85;;;2.78;;
73697;SDS011;62004;42.566;23.164;2022-10-22T14:43:47;5.40;;;3.50;;
73697;SDS011;62004;42.566;23.164;2022-10-22T14:46:13;6.80;;;3.17;;
73697;SDS011;62004;42.566;23.164;2022-10-22T14:48:39;5.07;;;2.72;;
73697;SDS011;62004;42.566;23.164;2022-10-22T14:51:04;6.30;;;3.10;;
73697;SDS011;62004;42.566;23.164;2022-10-22T14:53:30;3.92;;;2.97;;
73697;SDS011;62004;42.566;23.164;2022-10-22T14:55:55;3.63;;;2.97;;
73697;SDS011;62004;42.566;23.164;2022-10-22T14:58:23;5.63;;;3.20;;
73697;SDS011;62004;42.566;23.164;2022-10-22T15:00:48;5.90;;;3.15;;
73697;SDS011;62004;42.566;23.164;2022-10-22T15:03:13;5.57;;;2.67;;
73697;SDS011;62004;42.566;23.164;2022-10-22T15:05:39;3.70;;;2.93;;
73697;SDS011;62004;42.566;23.164;2022-10-22T15:08:07;5.78;;;3.03;;
73697;SDS011;62004;42.566;23.164;2022-10-22T15:10:33;3.85;;;2.65;;
73697;SDS011;62004;42.566;23.164;2022-10-22T15:12:58;3.90;;;2.73;;
73697;SDS011;62004;42.566;23.164;2022-10-22T15:15:23;8.53;;;3.10;;
73697;SDS011;62004;42.566;23.164;2022-10-22T15:17:49;5.65;;;2.80;;
73697;SDS011;62004;42.566;23.164;2022-10-22T15:20:14;6.87;;;3.30;;
73697;SDS011;62004;42.566;23.164;2022-10-22T15:22:40;5.63;;;3.13;;
73697;SDS011;62004;42.566;23.164;2022-10-22T15:25:06;3.30;;;2.85;;
73697;SDS011;62004;42.566;23.164;2022-10-22T15:27:31;5.45;;;2.80;;
73697;SDS011;62004;42.566;23.164;2022-10-22T15:29:57;4.50;;;2.55;;
73697;SDS011;62004;42.566;23.164;2022-10-22T15:32:23;5.03;;;2.85;;
73697;SDS011;62004;42.566;23.164;2022-10-22T15:34:50;7.05;;;3.17;;
73697;SDS011;62004;42.566;23.164;2022-10-22T15:37:16;6.40;;;3.45;;
73697;SDS011;62004;42.566;23.164;2022-10-22T15:39:41;7.80;;;3.57;;
73697;SDS011;62004;42.566;23.164;2022-10-22T15:42:07;11.88;;;3.40;;
73697;SDS011;62004;42.566;23.164;2022-10-22T15:44:33;6.25;;;3.60;;
73697;SDS011;62004;42.566;23.164;2022-10-22T15:46:58;7.80;;;3.35;;
73697;SDS011;62004;42.566;23.164;2022-10-22T15:49:25;4.38;;;2.70;;
73697;SDS011;62004;42.566;23.164;2022-10-22T15:51:51;5.35;;;3.53;;
73697;SDS011;62004;42.566;23.164;2022-10-22T15:54:17;4.32;;;2.78;;
73697;SDS011;62004;42.566;23.164;2022-10-22T15:56:42;5.68;;;3.53;;
73697;SDS011;62004;42.566;23.164;2022-10-22T15:59:08;3.85;;;2.85;;
73697;SDS011;62004;42.566;23.164;2022-10-22T16:01:34;5.78;;;3.05;;
73697;SDS011;62004;42.566;23.164;2022-10-22T16:04:00;9.70;;;3.05;;
73697;SDS011;62004;42.566;23.164;2022-10-22T16:06:39;5.90;;;3.00;;
73697;SDS011;62004;42.566;23.164;2022-10-22T16:09:07;5.78;;;2.65;;
73697;SDS011;62004;42.566;23.164;2022-10-22T16:11:32;4.25;;;2.60;;
73697;SDS011;62004;42.566;23.164;2022-10-22T16:13:58;5.25;;;3.25;;
73697;SDS011;62004;42.566;23.164;2022-10-22T16:16:24;8.27;;;3.47;;
73697;SDS011;62004;42.566;23.164;2022-10-22T16:18:50;6.60;;;2.63;;